Imagen Satelital Infraroja

Smiley face

Imagen Satelital Topes Nubosos

Smiley face

Imagen Satelital Visible

Smiley face

METAR

SAAC 022100Z 09005KT 9999 FEW025 SCT200 31/13 Q1013 =
SAAG 022000Z 14004KT 9999 SCT040 31/12 Q1014 =
SAAJ 022100Z 02010KT 9999 FEW025 29/13 Q1013 =
SAAP 022100Z 36007KT CAVOK 29/14 Q1013 =
SAAR 022100Z 05005KT CAVOK 30/14 Q1013 =
SAAV 021800Z 05007KT CAVOK 31/14 Q1015 =
SABE 022100Z 11010KT CAVOK 26/14 Q1015 =
SACE 022000Z 05008KT 9999 FEW035 28/15 Q1015 =
SACO 022100Z 02008KT 9999 FEW025 27/14 Q1016 =
SADF 022100Z 09011KT 9999 FEW025 27/14 Q1015 =
SADM 022100Z 05005KT 9999 FEW035 29/18 Q1014 =
SADP 022100Z 09010KT 9999 29/13 Q1015 =
SAEZ 022100Z 06008KT 020V110 CAVOK 29/13 Q1015 =
SAME 022100Z 32010KT 9999 SCT040TCU FEW045CB 28/15 Q1010 =
SAMM 022100Z 05004KT 9999 SCT030 SCT045CB 19/14 Q1017 =
SAMR 022100Z 07008KT 9999 SCT025TCU FEW045 29/14 Q1011 =
SANC 022100Z 36025G30KT 9999 SCT040 FEW050TCU 28/15 Q1010 =
SANE 022100Z 23005KT 9999 SCT008 BKN020 23/22 Q1011 =
SANL 022100Z 00000KT CAVOK 29/19 Q1010 =
SANT 022100Z 14002KT 9999 SCT040 BKN058 25/21 Q1013 =
SANU 022100Z 20014KT 9999 FEW040 FEW050CB 30/12 Q1010 =
SAOC 022100Z 05013KT CAVOK 27/13 Q1013 RMK WIND ESTIMATED =
SAOR 022100Z 05012KT 9999 FEW040CB 26/18 Q1013 =
SAOS 022100Z 36004KT CAVOK 29/16 Q1012 =
SAOU 022100Z 11011KT 9999 SCT035 FEW040CB 29/16 Q1012 =
SARC 022100Z 14008KT 9000 FEW035 SCT090 BKN200 28/19 Q1012 =
SARE 022100Z 09005KT 9999 FEW025 BKN060 OVC070 28/20 Q1012 =
SARF 022100Z 09005KT 9999 BKN020 28/22 Q1012 =
SARI 022100Z 09005KT 9999 BKN025 FEW040TCU BKN080 24/22 Q1015 =
SARL 022100Z 14010KT 9999 FEW020 BKN200 28/17 Q1013 =
SARP 022100Z 16006KT 9999 FEW035 SCT100 BKN200 29/18 Q1014 =
SASA 022100Z 14003KT 9999 BKN022 OVC100 21/17 Q1016 =
SASJ 022100Z 00000KT 9999 FEW034 BKN100 23/21 Q1015 =
SATR 022100Z 07005KT 6000 FEW035 BKN100 29/19 Q1012 =
SAVC 022100Z VRB06KT 9999 SCT015 18/16 Q1005 =
SAVE 022100Z 27016KT 9999 FEW040TCU 30/10 Q1008 =
SAVT 022100Z 05022KT CAVOK 37/09 Q1004 =
SAVV 022100Z 34010KT CAVOK 32/11 Q1010 =
SAVY 022100Z 02016KT CAVOK 34/13 Q1005 =
SAWC 022100Z 27018KT 9999 FEW040 22/07 Q1001 =
SAWE 022100Z 02013KT 9999 BKN010 11/09 Q1012 =
SAWG 022100Z 05015G28KT 9999 FEW020 BKN200 15/08 Q1005 =
SAWH 022100Z 00000KT 9999 SCT035 BKN100 14/06 Q1007 =
SAWP 022100Z 23014KT 9999 FEW020 SCT180 28/02 Q1003 =
SAWU 021800Z 05022KT CAVOK 20/09 Q1009 =
SAZA 022100Z 07008KT 9999 07008KT 9999 SCT032 29/11 Q1015 =
SAZB 022100Z 02010KT CAVOK 30/11 Q1013 =
SAZG 022100Z 02011KT CAVOK 29/17 Q1012 =
SAZM 022100Z 07016KT 9999 FEW020 22/18 Q1017 =
SAZN 022100Z 02008KT CAVOK 34/14 Q1007 =
SAZR 022100Z 02013KT CAVOK 29/17 Q1012 =
SAZS 022100Z 29020KT 9999 SCT045 31/12 Q1010 =
SAZT 022100Z 05006KT 9999 SCT025 27/12 Q1016 =
SAZY 022100Z 25015KT 9999 FEW045 32/15 Q1007 =
SUAA 022100Z 12015KT CAVOK 25/17 Q1017 =
SUCA 022100Z 12015KT 9999 FEW030 25/17 Q1014 =
SUDU 022100Z 09005KT 9999 FEW033 30/14 Q1013 =
SULS 022100Z 12012KT CAVOK 25/14 Q1017 =
SUMU 022100Z 12015KT CAVOK 25/16 Q1016 NOSIG =
SUSO 022100Z 13009KT 9999 FEW033 SCT200 31/12 Q1014 =

TAF

SABE 021700Z 0218/0318 08015KT 9999 FEW018 TX29/0318Z TN22/0309Z BECMG 0304/0306 09020KT CAVOK BECMG 0308/0310 02015KT BECMG 0316/0318 09010KT =
SAZB 021700Z 0218/0318 35015KT CAVOK TX33/0318Z TN17/0308Z BECMG 0221/0223 07005KT BECMG 0304/0306 36015KT =
SAZS 021700Z 0218/0318 VRB03KT CAVOK TX32/0218Z TN12/0310Z BECMG 0223/0301 31015KT BECMG 0304/0306 27005KT 9999 SCT020 SCT100 BECMG 0316/0318 27010KT =
SANC 021700Z 0218/0318 36020G30KT 9999 BKN030 TX30/0318Z TN20/0310Z PROB40 TEMPO 0221/0300 18015KT 8000 RA BKN030 FEW050CB =
SAZY 021700Z 0218/0318 VRB03KT CAVOK TX33/0318Z TN13/0310Z BECMG 0304/0306 34015 9999 SCT020 SCT100 BECMG 0316/0318 27010KT =
SAVC 021700Z 0218/0318 14010KT 9999 SCT030 TX25/0219Z TN18/0311Z BECMG 0221/0223 09010KT FEW035TCU BECMG 0300/0302 SHRA SCT025 SCT030 FEW035CB BKN050 BECMG 0305/0307 29025G35KT BECMG 0308/0310 NSW SCT030 BKN090 BECMG 0314/0316 29015KT =
SACO 021700Z 0218/0318 05010KT 9999 SCT020 TX30/0318Z TN16/0310Z =
SARC 021700Z 0218/0318 09005KT FEW025 SCT070 TX33/0318Z TN21/0309Z BECMG 0300/0302 9999 SCT025 BKN060 PROB30 0313/0318 7000 SHRA SCT020 BKN045 FEW050TCU =
SAWC 021700Z 0218/0318 34010KT 9999 SCT030 BKN090 TX22/0218Z TN12/0311Z BECMG 0222/0300 09010KT BECMG 0300/0302 VRB03KT -RA BKN025 BKN050 BECMG 0315/0317 27015KT NSW SCT030 SCT090 =
SAVE 021700Z 0218/0318 05010KT 9999 SCT030 SCT090 TX32/0218Z TN11/0311Z BECMG 0220/0222 27020G30KT BECMG 0309/0311 27015KT =
SAEZ 021700Z 0218/0318 09013KT 9999 SCT040 TX30/0318Z TN20/0309Z BECMG 0303/0306 05010KT CAVOK BECMG 0309/0312 02012KT =
SARF 021700Z 0218/0318 09005KT 9999 SCT035 TX28/0318Z TN22/0309Z PROB30 0220/0224 8000 -RA SCT030 BKN045 BECMG 0304/0306 09005KT 9999 SCT020 BECMG 0308/0310 7000 TSRA SCT020 FEW045CB BKN060 =
SARI 021700Z 0218/0318 05005KT 9999 SCT025 BKN100 TX25/0318Z TN21/0309Z BECMG 0308/0310 14005KT 8000 -TSRA SCT020 BKN045 FEW050CB =
SASJ 021700Z 0218/0318 36005KT 9999 BKN020 BKN030 TX29/0318Z TN18/0310Z PROB30 TEMPO 0221/0300 36005KT 4000 RA BKN005 BKN020 =
SANL 021700Z 0218/0318 18005KT 9999 BKN030 TX30/0318Z TN19/0310Z PROB40 TEMPO 0300/0303 18015KT 5000 RA BKN040 FEW040CB =
SAZM 021700Z 0218/0318 09015KT 9999 SCT020 TX29/0318Z TN15/0310Z BECMG 0221/0223 05015KT 9999 FEW020 TEMPO 0303/0306 36015KT 8000 SCT020 BECMG 0312/0315 05015KT CAVOK =
SAME 021700Z 0218/0318 05005KT 9999 SCT040 TX33/0220Z TN19/0310Z PROB40 TEMPO 0223/0305 14010KT 9999 TSRA BKN035 FEW040CB =
SAZN 021700Z 0218/0318 08010KT CAVOK TX34/0219Z TN23/0309Z BECMG 0304/0306 VRB03KT BECMG 0308/0310 20015KT BECMG 0314/0316 20020KT =
SAAP 021700Z 0218/0318 08010KT CAVOK TX33/0318Z TN18/0309Z BECMG 0222/0223 07015KT BECMG 0306/0309 09005KT 8000 NSC BECMG 0313/0315 02010KT CAVOK =
SARP 021700Z 0218/0318 05005KT 9999 FEW025 BKN100 TX27/0318Z TN22/0309Z BECMG 0222/0200 11005KT 9999 SCT025 BKN070 BECMG 0308/0310 07005KT 8000 -TSRA SCT025 FEW050CB =
SARE 021700Z 0218/0318 09005KT FEW025 SCT070 TX33/0318Z TN21/0309Z BECMG 0300/0302 9999 SCT025 BKN060 PROB30 0313/0318 7000 SHRA SCT020 BKN045 FEW050TCU =
SAWG 021700Z 0218/0318 02020G30KT 9999 BKN030 BKN090 TX16/0218Z TN12/0311Z BECMG 0301/0303 09010KT RA BKN025 OVC050 BECMG 0307/0309 18020KT BECMG 0314/0316 25015KT -RA BKN030 BKN060 =
SAWE 021700Z 0218/0318 02020G30KT 9999 BKN012 BKN060 TX12/0218Z TN08/0311Z BECMG 0303/0305 07010KT BECMG 0308/0310 3000 +RA BKN007 OVC015 BECMG 0314/0316 20015KT 9999 -RA BKN012 OVC030 =
SAAR 021700Z 0218/0318 08010KT 9999 FEW035 TX32/0318Z TN16/0308Z BECMG 0222/0223 07015KT BECMG 0306/0309 09005KT 8000 NSC BECMG 0313/0315 02015KT CAVOK =
SASA 021700Z 0218/0318 02005KT 9999 BKN010 TX24/0218Z TN17/0310Z BECMG 0221/0300 05005KT 9999 BKN020 =
SADF 021700Z 0218/0318 05010KT 9999 FEW025 TX30/0318Z TN22/0309Z BECMG 0220/0222 09020KT BECMG 0307/0309 02015KT BECMG 0311/0313 02010KT 9999 SCT020 =
SANU 021700Z 0218/0318 36005KT 9999 SCT040 TX33/0220Z TN19/0310Z PROB40 TEMPO 0223/0305 14010KT 9999 TSRA BKN035 FEW040CB
SAOU 021700Z 0218/0318 05010KT 9999 SCT035 TX30/0219Z TN18/0309Z PROB40 TEMPO 0222/0305 09010KT 6000 TSRA BKN030 FEW050CB =
SAMR 021700Z 0218/0318 05010KT 9999 SCT035 TX31/0220Z TN16/0310Z PROB40 TEMPO 0221/0304 14005KT 7000 TSRA BKN030 FEW040CB =
SAZR 021700Z 0218/0318 36015KT CAVOK TX33/0318Z TN17/0308Z BECMG 0223/0301 07010KT BECMG 0313/0314 36015KT =
SANE 021700Z 0218/0318 09005KT 9999 BKN035 TX31/0318Z TN20/0310Z =
SAAV 021700Z 0218/0318 11010KT CAVOK TX33/0318Z TN19/0309Z BECMG 0222/0223 07015KT BECMG 0306/0309 09005KT 8000 NSC BECMG 0313/0315 02010KT CAVOK =
SANR 021700Z 0218/0318 11005KT 9999 BKN030 TX28/0318Z TN18/0310Z PROB40 TEMPO 0303/0306 18015KT 5000 RA BKN030 FEW040CB =
SAVT 021700Z 0218/0318 36015KT 9999 SCT035 SCT090 TX38/0219Z TN25/0311Z BECMG 0220/0222 34020G30KT BECMG 0309/0311 20015KT =
SANT 021700Z 0218/0318 18005KT 9999 BKN025 TX30/0318Z TN20/0310Z =
SAWH 021700Z 0218/0318 02020G30KT 9999 -RA BKN030 BKN090 TX12/0218Z TN08/0311Z BECMG 0306/0308 VRB03KT 5000 RA BKN020 OVC050 =
SAVV 021700Z 0218/0318 34020KT 9999 SCT035 TX35/0219Z TN22/0311Z =
SUCA 021720Z 0218/0318 12015KT 9999 SCT020 TX30/0318Z TN17/0310Z BECMG 0302/0304 02005KT CAVOK PROB30 TEMPO 0303/0309 5000 BR =
SULS 021720Z 0218/0318 12015KT 9999 SCT020 TX30/0318Z TN17/0310Z TEMPO 0218/0222 12015G25KT 9999 BKN020 BECMG 0302/0304 02005KT CAVOK PROB30 TEMPO 0303/0309 5000 BR =
SUAA 021720Z 0218/0318 12015KT 9999 SCT020 TX30/0318Z TN17/0310Z BECMG 0302/0304 02005KT CAVOK PROB30 TEMPO 0303/0309 5000 BR =
SUMU 021720Z 0218/0318 12015KT 9999 SCT020 TX30/0318Z TN17/0310Z BECMG 0302/0304 02005KT CAVOK PROB30 TEMPO 0303/0309 5000 BR =